Flugplatz Achmer

Für EDXA sind keine METAR/TAF Berichte vorhanden.
Es werden die Flugwettermeldungen vom Flugplatz Münster Osnabrück in 31 km Entfernung angezeigt.

Bericht für EDDG

vom 22.01. um 14:20 UTC

Wind 3 kt aus 250°

Sichtweite 900 m

schwacher Sprühregen

Nebel

aufgebrochene Bewölkung in 100 ft

Temperatur 3.0°C

Taupunkt 3.0°C

Luftfeuchtigkeit 100%

Luftdruck 1035 hPa

EDDG 221420Z 25003KT 0900 R25/P2000N -DZ FG BKN001 03/03 Q1035 TEMPO BKN003

Prognose für EDDG

vom 22.01. um 00:00 UTC

Zwischen 00:00 UTC und 00:00 UTC

variable Windrichtung mit 3 kt

Sichtweite 2000 m

feuchter Dunst

aufgebrochene Bewölkung in 300 ft


Zwischen 00:00 UTC und 00:00 UTC zeitweise

Sichtweite 600 m

Nebel

aufgebrochene Bewölkung in 100 ft


Zwischen 00:00 und 00:00 UTC übergehend zu

variable Windrichtung mit 3 kt

Sichtweite 900 m

Nebel

bedeckt in 100 ft


Zwischen 00:00 UTC und 00:00 UTC zeitweise

Sichtweite 300 m

Nebel

TAF COR EDDG 221148Z 2212/2312 VRB03KT 2000 BR BKN003 TEMPO 2212/2218 0600 FG BKN001 BECMG 2218/2221 0900 FG OVC001 TEMPO 2222/2310 0300 FG VV000
Impressum